createdAt,value
2023-02-23T00:02:15.200Z,44.40
2023-02-23T00:04:43.417Z,44.50
2023-02-23T00:07:11.717Z,45.10
2023-02-23T00:09:40.406Z,44.80
2023-02-23T00:12:08.940Z,45.10
2023-02-23T00:14:38.753Z,45.10
2023-02-23T00:17:14.532Z,44.80
2023-02-23T00:19:45.046Z,44.90
2023-02-23T00:22:13.670Z,45.30
2023-02-23T00:24:43.299Z,45.40
2023-02-23T00:27:17.773Z,44.90
2023-02-23T00:29:49.359Z,45.10
2023-02-23T00:32:21.422Z,44.90
2023-02-23T00:34:52.384Z,44.40
2023-02-23T00:37:22.858Z,44.20
2023-02-23T00:39:52.060Z,43.70
2023-02-23T00:42:21.080Z,43.60
2023-02-23T00:44:49.721Z,43.30
2023-02-23T00:47:21.389Z,43.20
2023-02-23T00:49:50.975Z,43.20
2023-02-23T00:52:20.610Z,43.10
2023-02-23T00:54:48.809Z,42.90
2023-02-23T00:57:17.218Z,42.70
2023-02-23T00:59:45.400Z,43.10
2023-02-23T01:02:13.592Z,43.10
2023-02-23T01:04:43.198Z,43.30
2023-02-23T01:07:12.953Z,42.80
2023-02-23T01:09:41.776Z,42.70
2023-02-23T01:12:10.344Z,42.40
2023-02-23T01:14:38.724Z,42.40
2023-02-23T01:17:07.438Z,42.50
2023-02-23T01:19:37.583Z,42.90
2023-02-23T01:22:07.295Z,42.80
2023-02-23T01:24:35.482Z,43.30
2023-02-23T01:27:06.369Z,42.70
2023-02-23T01:29:35.638Z,42.80
2023-02-23T01:32:04.990Z,42.90
2023-02-23T01:34:33.527Z,43.60
2023-02-23T01:37:01.709Z,44.00
2023-02-23T01:39:33.618Z,44.00
2023-02-23T01:42:01.798Z,44.60
2023-02-23T01:45:21.884Z,44.30
2023-02-23T01:47:50.552Z,44.30
2023-02-23T01:50:19.869Z,44.20
2023-02-23T01:52:51.087Z,43.90
2023-02-23T01:55:24.339Z,43.90
2023-02-23T01:57:57.591Z,43.70
2023-02-23T02:00:28.296Z,43.80
2023-02-23T02:02:58.176Z,44.10
2023-02-23T02:05:30.008Z,44.20
2023-02-23T02:07:59.588Z,44.40
2023-02-23T02:10:56.029Z,44.50
2023-02-23T02:13:30.294Z,44.60
2023-02-23T02:16:22.605Z,44.70
2023-02-23T02:19:25.070Z,44.70
2023-02-23T02:22:34.888Z,44.10
2023-02-23T02:25:35.888Z,43.70
2023-02-23T02:28:46.818Z,43.60
2023-02-23T02:32:01.356Z,43.20
2023-02-23T02:35:10.691Z,42.70
2023-02-23T02:37:57.276Z,43.20
2023-02-23T02:40:32.477Z,42.80
2023-02-23T02:43:11.536Z,42.60
2023-02-23T02:45:50.650Z,42.40
2023-02-23T02:48:31.050Z,43.20
2023-02-23T02:51:09.306Z,43.30
2023-02-23T02:53:46.565Z,42.90
2023-02-23T02:56:19.738Z,42.60
2023-02-23T02:58:50.154Z,42.50
2023-02-23T03:01:37.062Z,42.90
2023-02-23T03:04:39.099Z,43.00
2023-02-23T03:07:34.727Z,42.70
2023-02-23T03:10:31.519Z,42.60
2023-02-23T03:13:29.148Z,43.10
2023-02-23T03:16:24.268Z,43.40
2023-02-23T03:19:27.950Z,43.00
2023-02-23T03:22:22.965Z,42.80
2023-02-23T03:25:12.443Z,42.30
2023-02-23T03:28:08.205Z,42.00
2023-02-23T03:31:04.819Z,41.80
2023-02-23T03:33:59.575Z,41.90
2023-02-23T03:36:49.713Z,41.90
2023-02-23T03:39:48.115Z,41.70
2023-02-23T03:42:39.135Z,42.00
2023-02-23T03:45:32.653Z,42.00
2023-02-23T03:48:26.535Z,42.10
2023-02-23T03:51:14.981Z,41.70
2023-02-23T03:54:05.911Z,41.70
2023-02-23T03:56:54.074Z,42.00
2023-02-23T03:59:43.615Z,41.80
2023-02-23T04:02:35.716Z,41.70
2023-02-23T04:05:26.627Z,41.60
2023-02-23T04:08:13.195Z,42.00
2023-02-23T04:11:06.615Z,42.40
2023-02-23T04:13:37.147Z,42.70
2023-02-23T04:16:07.365Z,43.10
2023-02-23T04:18:38.899Z,43.40
2023-02-23T04:21:10.268Z,43.10
2023-02-23T04:23:42.324Z,42.90
2023-02-23T04:26:10.583Z,42.80
2023-02-23T04:28:38.760Z,42.40
2023-02-23T04:31:07.088Z,42.20
2023-02-23T04:33:36.691Z,41.90
2023-02-23T04:36:05.395Z,41.70
2023-02-23T04:38:33.596Z,41.30
2023-02-23T04:41:01.933Z,41.20
2023-02-23T04:43:30.120Z,41.60
2023-02-23T04:45:58.371Z,41.50
2023-02-23T04:48:27.379Z,41.90
2023-02-23T04:50:57.058Z,41.70
2023-02-23T04:53:27.079Z,42.20
2023-02-23T04:55:55.754Z,41.80
2023-02-23T04:58:24.009Z,41.80
2023-02-23T05:00:52.286Z,41.70
2023-02-23T05:03:20.444Z,41.70
2023-02-23T05:05:48.602Z,41.60
2023-02-23T05:08:18.162Z,41.40
2023-02-23T05:10:47.538Z,41.50
2023-02-23T05:13:16.266Z,42.30
2023-02-23T05:15:44.487Z,42.40
2023-02-23T05:18:12.724Z,42.20
2023-02-23T05:20:44.789Z,42.50
2023-02-23T05:23:13.398Z,42.30
2023-02-23T05:25:42.993Z,42.70
2023-02-23T05:28:11.264Z,42.90
2023-02-23T05:30:39.478Z,43.10
2023-02-23T05:33:07.659Z,42.80
2023-02-23T05:35:35.853Z,43.10
2023-02-23T05:38:05.128Z,43.10
2023-02-23T05:40:34.281Z,43.00
2023-02-23T05:43:04.244Z,42.80
2023-02-23T05:45:33.419Z,43.50
2023-02-23T05:48:01.664Z,43.50
2023-02-23T05:50:29.937Z,43.70
2023-02-23T05:52:58.196Z,43.60
2023-02-23T05:55:27.082Z,43.30
2023-02-23T05:57:55.488Z,43.00
2023-02-23T06:00:25.407Z,42.80
2023-02-23T06:02:53.985Z,43.10
2023-02-23T06:05:22.408Z,42.80
2023-02-23T06:07:50.619Z,42.50
2023-02-23T06:10:19.235Z,42.60
2023-02-23T06:12:50.015Z,42.40
2023-02-23T06:15:18.671Z,42.10
2023-02-23T06:17:49.310Z,42.00
2023-02-23T06:20:18.149Z,41.80
2023-02-23T06:22:46.615Z,42.10
2023-02-23T06:25:15.472Z,42.30
2023-02-23T06:27:45.496Z,43.10
2023-02-23T06:30:14.832Z,43.40
2023-02-23T06:32:44.097Z,44.20
2023-02-23T06:35:18.213Z,45.00
2023-02-23T06:37:46.448Z,45.40
2023-02-23T06:40:14.903Z,45.60
2023-02-23T06:42:43.433Z,45.30
2023-02-23T06:45:13.287Z,45.10
2023-02-23T06:47:43.242Z,45.10
2023-02-23T06:50:12.697Z,45.10
2023-02-23T06:52:44.040Z,45.30
2023-02-23T06:55:13.269Z,44.90
2023-02-23T06:57:42.591Z,44.70
2023-02-23T07:00:12.650Z,44.00
2023-02-23T07:02:41.987Z,43.20
2023-02-23T07:05:10.861Z,42.30
2023-02-23T07:07:39.506Z,42.10
2023-02-23T07:10:10.708Z,41.30
2023-02-23T07:12:38.895Z,41.20
2023-02-23T07:15:08.028Z,41.10
2023-02-23T07:17:36.220Z,40.70
2023-02-23T07:20:05.605Z,40.70
2023-02-23T07:22:34.220Z,40.80
2023-02-23T07:25:04.529Z,40.70
2023-02-23T07:27:36.448Z,41.10
2023-02-23T07:30:05.807Z,41.10
2023-02-23T07:32:34.306Z,41.30
2023-02-23T07:35:03.849Z,40.80
2023-02-23T07:37:32.049Z,40.90
2023-02-23T07:40:01.421Z,41.10
2023-02-23T07:42:29.950Z,41.40
2023-02-23T07:44:59.528Z,41.80
2023-02-23T07:47:31.065Z,41.40
2023-02-23T07:50:03.096Z,41.60
2023-02-23T07:52:31.444Z,41.60
2023-02-23T07:54:59.682Z,41.50
2023-02-23T07:57:30.327Z,41.80
2023-02-23T08:00:00.147Z,41.60
2023-02-23T08:02:30.003Z,42.20
2023-02-23T08:04:59.512Z,42.50
2023-02-23T08:07:27.762Z,42.30
2023-02-23T08:09:55.992Z,42.20
2023-02-23T08:12:24.204Z,42.10
2023-02-23T08:14:52.758Z,41.80
2023-02-23T08:17:22.623Z,41.90
2023-02-23T08:19:50.797Z,41.50
2023-02-23T08:22:19.011Z,41.80
2023-02-23T08:24:47.187Z,41.70
2023-02-23T08:27:15.355Z,41.80
2023-02-23T08:29:43.540Z,41.70
2023-02-23T08:32:12.016Z,41.10
2023-02-23T08:34:44.195Z,41.00
2023-02-23T08:37:12.814Z,41.40
2023-02-23T08:39:43.342Z,40.60
2023-02-23T08:42:11.823Z,40.90
2023-02-23T08:44:40.011Z,41.60
2023-02-23T08:47:08.412Z,41.60
2023-02-23T08:49:37.229Z,41.60
2023-02-23T08:52:07.356Z,41.10
2023-02-23T08:54:35.549Z,40.70
2023-02-23T08:57:03.760Z,40.00
2023-02-23T08:59:32.106Z,39.80
2023-02-23T09:02:03.269Z,39.50
2023-02-23T09:04:35.147Z,39.70
2023-02-23T09:07:03.566Z,38.90
2023-02-23T09:09:34.148Z,38.50
2023-02-23T09:12:05.500Z,38.60
2023-02-23T09:14:33.801Z,39.00
2023-02-23T09:17:07.856Z,39.00
2023-02-23T09:19:36.171Z,38.40
2023-02-23T09:22:04.375Z,38.30
2023-02-23T09:24:34.840Z,37.20
2023-02-23T09:27:03.064Z,37.30
2023-02-23T09:29:32.027Z,37.70
2023-02-23T09:32:00.418Z,37.50
2023-02-23T09:34:30.724Z,37.90
2023-02-23T09:36:59.062Z,37.60
2023-02-23T09:39:37.647Z,37.70
2023-02-23T09:42:34.401Z,37.60
2023-02-23T09:45:12.440Z,38.10
2023-02-23T09:47:54.070Z,37.70
2023-02-23T09:50:32.004Z,38.30
2023-02-23T09:53:05.828Z,38.10
2023-02-23T09:55:35.386Z,38.20
2023-02-23T09:58:09.896Z,38.70
2023-02-23T10:00:44.612Z,38.10
2023-02-23T10:03:28.125Z,37.50
2023-02-23T10:06:04.413Z,38.00
2023-02-23T10:08:49.697Z,37.80
2023-02-23T10:11:26.712Z,38.30
2023-02-23T10:14:10.314Z,38.20
2023-02-23T10:16:47.295Z,37.90
2023-02-23T10:19:26.820Z,38.10
2023-02-23T10:21:58.313Z,38.40
2023-02-23T10:24:31.093Z,38.10
2023-02-23T10:27:05.240Z,37.90
2023-02-23T10:29:42.646Z,37.90
2023-02-23T10:32:23.052Z,38.40
2023-02-23T10:34:56.515Z,37.90
2023-02-23T10:37:26.695Z,38.10
2023-02-23T10:39:54.929Z,38.40
2023-02-23T10:42:28.925Z,39.00
2023-02-23T10:44:59.751Z,39.30
2023-02-23T10:47:31.062Z,38.40
2023-02-23T10:49:59.772Z,38.40
2023-02-23T10:52:32.825Z,38.40
2023-02-23T10:55:03.364Z,38.10
2023-02-23T10:57:38.553Z,38.10
2023-02-23T11:00:30.710Z,37.60
2023-02-23T11:02:59.891Z,38.20
2023-02-23T11:05:46.868Z,38.10
2023-02-23T11:08:25.085Z,38.30
2023-02-23T11:11:05.903Z,37.90
2023-02-23T11:13:40.194Z,37.90
2023-02-23T11:16:13.915Z,37.70
2023-02-23T11:18:44.300Z,37.30
2023-02-23T11:21:22.714Z,37.10
2023-02-23T11:23:54.252Z,37.40
2023-02-23T11:26:37.400Z,37.00
2023-02-23T11:29:17.346Z,37.40
2023-02-23T11:31:51.385Z,36.80
2023-02-23T11:34:30.265Z,36.90
2023-02-23T11:37:08.513Z,37.20
2023-02-23T11:39:38.549Z,37.20
2023-02-23T11:42:22.585Z,37.10
2023-02-23T11:45:03.745Z,37.00
2023-02-23T11:47:45.607Z,37.00
2023-02-23T11:50:23.835Z,37.00
2023-02-23T11:52:56.978Z,37.40
2023-02-23T11:55:25.844Z,37.10
2023-02-23T11:57:56.751Z,36.70
2023-02-23T12:00:28.303Z,37.30
2023-02-23T12:03:00.759Z,36.90
2023-02-23T12:05:30.655Z,36.80
2023-02-23T12:08:03.649Z,36.90
2023-02-23T12:10:38.930Z,37.40
2023-02-23T12:13:21.092Z,37.40
2023-02-23T12:15:54.308Z,38.00
2023-02-23T12:19:02.976Z,37.90
2023-02-23T12:21:40.547Z,37.90
2023-02-23T12:24:22.073Z,38.40
2023-02-23T12:26:55.334Z,38.00
2023-02-23T12:29:32.081Z,37.40
2023-02-23T12:32:03.853Z,37.40
2023-02-23T12:34:40.516Z,37.10
2023-02-23T12:37:19.344Z,37.20
2023-02-23T12:39:53.324Z,37.30
2023-02-23T12:42:27.644Z,37.60
2023-02-23T12:45:04.268Z,37.90
2023-02-23T12:47:37.900Z,38.10
2023-02-23T12:50:13.566Z,38.10
2023-02-23T12:52:45.485Z,38.50
2023-02-23T12:55:14.820Z,38.40
2023-02-23T12:57:49.466Z,38.20
2023-02-23T13:00:43.586Z,37.60
2023-02-23T13:03:47.533Z,37.90
2023-02-23T13:06:30.412Z,38.30
2023-02-23T13:09:12.183Z,38.00
2023-02-23T13:11:51.905Z,37.70
2023-02-23T13:14:29.693Z,38.00
2023-02-23T13:17:04.314Z,37.50
2023-02-23T13:19:42.479Z,37.60
2023-02-23T13:22:27.593Z,37.30
2023-02-23T13:24:59.483Z,37.10
2023-02-23T13:27:31.469Z,37.50
2023-02-23T13:30:02.208Z,37.40
2023-02-23T13:32:33.985Z,37.70
2023-02-23T13:35:03.956Z,37.20
2023-02-23T13:37:44.384Z,37.70
2023-02-23T13:40:30.495Z,37.00
2023-02-23T13:43:09.748Z,37.00
2023-02-23T13:45:48.746Z,37.30
2023-02-23T13:48:32.649Z,37.20
2023-02-23T13:51:07.814Z,37.60
2023-02-23T13:53:46.898Z,37.50
2023-02-23T13:56:18.090Z,37.60
2023-02-23T13:58:49.727Z,37.50
2023-02-23T14:01:22.446Z,37.50
2023-02-23T14:03:56.653Z,37.80
2023-02-23T14:06:27.887Z,37.20
2023-02-23T14:09:02.221Z,37.50
2023-02-23T14:11:49.480Z,37.50
2023-02-23T14:14:45.338Z,37.60
2023-02-23T14:17:39.591Z,37.40
2023-02-23T14:20:36.627Z,37.20
2023-02-23T14:23:49.726Z,37.20
2023-02-23T14:26:41.303Z,37.20
2023-02-23T14:29:28.781Z,37.80
2023-02-23T14:32:30.878Z,37.50
2023-02-23T14:35:03.224Z,38.00
2023-02-23T14:37:35.914Z,38.10
2023-02-23T14:40:59.572Z,38.10
2023-02-23T14:43:58.709Z,38.30
2023-02-23T14:46:28.381Z,38.90
2023-02-23T14:49:02.113Z,38.70
2023-02-23T14:51:42.161Z,38.50
2023-02-23T14:54:23.177Z,38.40
2023-02-23T14:56:53.584Z,38.60
2023-02-23T14:59:26.999Z,38.30
2023-02-23T15:01:56.709Z,38.30
2023-02-23T15:04:27.268Z,38.50
2023-02-23T15:06:58.476Z,38.10
2023-02-23T15:09:34.598Z,38.10
2023-02-23T15:12:13.146Z,38.90
2023-02-23T15:14:46.992Z,38.10
2023-02-23T15:17:19.352Z,38.30
2023-02-23T15:19:51.024Z,38.00
2023-02-23T15:22:26.306Z,38.10
2023-02-23T15:24:59.009Z,38.00
2023-02-23T15:27:37.152Z,38.20
2023-02-23T15:30:24.291Z,37.90
2023-02-23T15:33:02.120Z,38.20
2023-02-23T15:35:32.308Z,38.20
2023-02-23T15:38:14.026Z,38.30
2023-02-23T15:40:46.966Z,38.20
2023-02-23T15:43:15.233Z,38.30
2023-02-23T15:45:50.238Z,38.20
2023-02-23T15:48:22.935Z,38.40
2023-02-23T15:50:54.867Z,38.20
2023-02-23T15:53:30.280Z,38.40
2023-02-23T15:56:04.256Z,38.50
2023-02-23T15:58:44.510Z,38.30
2023-02-23T16:01:24.853Z,38.20
2023-02-23T16:04:00.775Z,38.20
2023-02-23T16:06:35.092Z,38.50
2023-02-23T16:09:20.629Z,38.10
2023-02-23T16:11:51.725Z,37.90
2023-02-23T16:14:21.855Z,38.20
2023-02-23T16:17:09.832Z,38.10
2023-02-23T16:19:41.578Z,38.20
2023-02-23T16:22:21.340Z,38.60
2023-02-23T16:25:06.570Z,38.30
2023-02-23T16:27:34.977Z,38.40
2023-02-23T16:30:16.934Z,38.50
2023-02-23T16:32:46.898Z,38.90
2023-02-23T16:35:18.690Z,38.70
2023-02-23T16:38:03.496Z,39.40
2023-02-23T16:40:31.893Z,39.60
2023-02-23T16:43:00.062Z,39.20
2023-02-23T16:45:29.773Z,39.00
2023-02-23T16:48:03.196Z,39.50
2023-02-23T16:50:40.498Z,39.50
2023-02-23T16:53:12.377Z,39.60
2023-02-23T16:55:51.953Z,40.20
2023-02-23T16:58:24.726Z,40.30
2023-02-23T17:00:53.866Z,40.60
2023-02-23T17:03:25.386Z,40.80
2023-02-23T17:05:56.299Z,40.80
2023-02-23T17:08:25.811Z,40.60
2023-02-23T17:10:57.729Z,41.40
2023-02-23T17:13:33.135Z,41.20
2023-02-23T17:16:03.529Z,41.00
2023-02-23T17:18:34.879Z,40.60
2023-02-23T17:21:07.663Z,40.60
2023-02-23T17:23:42.575Z,41.40
2023-02-23T17:26:12.553Z,42.10
2023-02-23T17:28:43.718Z,42.30
2023-02-23T17:31:15.010Z,42.20
2023-02-23T17:33:45.671Z,42.00
2023-02-23T17:36:17.683Z,42.60
2023-02-23T17:38:46.355Z,43.80
2023-02-23T17:41:18.828Z,43.80
2023-02-23T17:43:47.612Z,43.50
2023-02-23T17:46:15.914Z,42.80
2023-02-23T17:48:48.279Z,43.30
2023-02-23T17:51:20.056Z,43.00
2023-02-23T17:53:48.774Z,42.90
2023-02-23T17:56:17.785Z,43.00
2023-02-23T17:58:46.120Z,43.00
2023-02-23T18:01:18.129Z,43.70
2023-02-23T18:03:49.255Z,43.30
2023-02-23T18:06:19.943Z,43.60
2023-02-23T18:08:48.196Z,44.30
2023-02-23T18:11:18.659Z,43.80
2023-02-23T18:13:48.178Z,44.60
2023-02-23T18:16:17.002Z,43.90
2023-02-23T18:18:48.582Z,45.60
2023-02-23T18:21:20.533Z,45.10
2023-02-23T18:23:49.725Z,45.20
2023-02-23T18:26:21.652Z,44.50
2023-02-23T18:28:51.083Z,45.20
2023-02-23T18:31:24.296Z,44.60
2023-02-23T18:33:56.629Z,43.30
2023-02-23T18:36:28.607Z,43.20
2023-02-23T18:39:01.922Z,43.40
2023-02-23T18:41:31.649Z,43.40
2023-02-23T18:44:00.619Z,43.40
2023-02-23T18:46:29.528Z,43.50
2023-02-23T18:48:57.853Z,43.30
2023-02-23T18:51:27.449Z,43.70
2023-02-23T18:53:55.860Z,44.50
2023-02-23T18:56:27.157Z,44.60
2023-02-23T18:58:57.728Z,43.80
2023-02-23T19:01:28.220Z,43.70
2023-02-23T19:03:58.458Z,43.70
2023-02-23T19:06:28.522Z,43.70
2023-02-23T19:08:59.425Z,44.20
2023-02-23T19:11:30.173Z,43.60
2023-02-23T19:14:00.422Z,43.90
2023-02-23T19:16:31.028Z,44.10
2023-02-23T19:18:59.711Z,43.00
2023-02-23T19:21:29.774Z,43.70
2023-02-23T19:23:58.135Z,44.80
2023-02-23T19:26:29.343Z,43.80
2023-02-23T19:28:58.299Z,44.50
2023-02-23T19:31:27.233Z,44.70
2023-02-23T19:33:57.306Z,44.40
2023-02-23T19:36:30.026Z,43.50
2023-02-23T19:39:05.951Z,44.40
2023-02-23T19:41:35.386Z,44.50
2023-02-23T19:44:04.188Z,44.10
2023-02-23T19:46:32.395Z,43.80
2023-02-23T19:49:00.640Z,44.60
2023-02-23T19:51:29.093Z,44.10
2023-02-23T19:53:59.573Z,44.40
2023-02-23T19:56:30.175Z,44.40
2023-02-23T19:59:00.630Z,44.10
2023-02-23T20:01:29.900Z,43.60
2023-02-23T20:04:01.751Z,43.30
2023-02-23T20:06:32.061Z,43.10
2023-02-23T20:09:05.924Z,43.10
2023-02-23T20:11:34.321Z,42.70
2023-02-23T20:14:04.205Z,42.40
2023-02-23T20:16:33.996Z,42.30
2023-02-23T20:19:03.906Z,42.00
2023-02-23T20:21:33.218Z,42.30
2023-02-23T20:24:05.432Z,42.40
2023-02-23T20:26:36.917Z,42.30
2023-02-23T20:29:11.138Z,42.10
2023-02-23T20:31:42.834Z,42.00
2023-02-23T20:34:12.064Z,42.40
2023-02-23T20:36:42.039Z,42.50
2023-02-23T20:39:11.928Z,42.50
2023-02-23T20:41:43.979Z,42.40
2023-02-23T20:44:13.231Z,42.30
2023-02-23T20:46:42.394Z,42.30
2023-02-23T20:49:11.654Z,41.90
2023-02-23T20:51:40.300Z,42.50
2023-02-23T20:54:09.776Z,42.00
2023-02-23T20:56:42.854Z,42.10
2023-02-23T20:59:15.539Z,42.20
2023-02-23T21:01:45.034Z,42.80
2023-02-23T21:04:13.900Z,43.10
2023-02-23T21:06:43.884Z,43.30
2023-02-23T21:09:17.843Z,44.20
2023-02-23T21:11:48.822Z,44.10
2023-02-23T21:14:17.770Z,44.60
2023-02-23T21:16:46.517Z,45.80
2023-02-23T21:19:16.389Z,45.70
2023-02-23T21:21:47.088Z,45.70
2023-02-23T21:24:16.915Z,45.90
2023-02-23T21:26:45.630Z,45.70
2023-02-23T21:29:16.498Z,45.20
2023-02-23T21:31:46.402Z,45.50
2023-02-23T21:34:18.630Z,45.80
2023-02-23T21:36:46.890Z,45.60
2023-02-23T21:39:15.323Z,46.40
2023-02-23T21:41:43.815Z,46.20
2023-02-23T21:44:15.450Z,45.30
2023-02-23T21:46:43.887Z,44.70
2023-02-23T21:49:13.356Z,44.70
2023-02-23T21:51:43.325Z,45.10
2023-02-23T21:54:11.879Z,44.40
2023-02-23T21:56:40.084Z,43.90
2023-02-23T21:59:09.174Z,43.50
2023-02-23T22:01:42.806Z,43.10
2023-02-23T22:04:15.254Z,42.90
2023-02-23T22:06:45.476Z,42.50
2023-02-23T22:09:15.900Z,42.40
2023-02-23T22:11:47.115Z,42.70
2023-02-23T22:14:17.998Z,42.80
2023-02-23T22:16:50.056Z,42.70
2023-02-23T22:19:18.747Z,42.50
2023-02-23T22:21:48.880Z,42.40
2023-02-23T22:24:17.954Z,42.80
2023-02-23T22:26:50.464Z,43.00
2023-02-23T22:29:18.788Z,42.80
2023-02-23T22:31:48.569Z,42.80
2023-02-23T22:34:16.938Z,42.50
2023-02-23T22:36:45.372Z,42.10
2023-02-23T22:39:18.397Z,41.90
2023-02-23T22:41:48.106Z,41.70
2023-02-23T22:44:19.162Z,41.50
2023-02-23T22:46:49.358Z,41.40
2023-02-23T22:49:19.930Z,41.40
2023-02-23T22:51:50.408Z,41.60
2023-02-23T22:54:22.894Z,42.10
2023-02-23T22:56:51.122Z,42.40
2023-02-23T22:59:22.368Z,42.80
2023-02-23T23:01:56.351Z,42.70
2023-02-23T23:04:26.061Z,42.90
2023-02-23T23:06:54.280Z,42.60
2023-02-23T23:09:22.775Z,42.50
2023-02-23T23:11:51.827Z,42.20
2023-02-23T23:14:20.369Z,42.10
2023-02-23T23:16:49.694Z,42.10
2023-02-23T23:19:23.912Z,42.10
2023-02-23T23:21:55.589Z,41.80
2023-02-23T23:24:25.498Z,41.80
2023-02-23T23:26:56.220Z,41.80
2023-02-23T23:29:29.508Z,42.00
2023-02-23T23:31:58.135Z,41.80
2023-02-23T23:34:28.123Z,42.00
2023-02-23T23:36:56.842Z,42.00
2023-02-23T23:39:27.017Z,42.10
2023-02-23T23:41:55.322Z,42.40
2023-02-23T23:44:29.070Z,42.60
2023-02-23T23:46:58.013Z,42.80
2023-02-23T23:49:27.681Z,42.90
2023-02-23T23:51:57.378Z,43.10
2023-02-23T23:54:27.386Z,43.60
2023-02-23T23:56:56.194Z,43.30
2023-02-23T23:59:26.453Z,43.70
